createdAt,value
2022-11-25T00:02:03.996Z,102166.59
2022-11-25T00:05:09.466Z,102167.44
2022-11-25T00:08:15.829Z,102162.44
2022-11-25T00:11:20.888Z,102173.47
2022-11-25T00:14:25.944Z,102178.59
2022-11-25T00:17:30.885Z,102177.72
2022-11-25T00:20:35.422Z,102167.66
2022-11-25T00:23:41.519Z,102177.75
2022-11-25T00:26:46.427Z,102176.03
2022-11-25T00:29:51.216Z,102181.97
2022-11-25T00:32:55.798Z,102177.97
2022-11-25T00:36:03.263Z,102175.34
2022-11-25T00:39:13.317Z,102176.16
2022-11-25T00:42:35.580Z,102179.50
2022-11-25T00:45:40.195Z,102177.94
2022-11-25T00:48:44.717Z,102180.50
2022-11-25T00:51:49.383Z,102185.63
2022-11-25T00:54:56.030Z,102188.91
2022-11-25T00:58:00.528Z,102184.81
2022-11-25T01:01:05.278Z,102183.09
2022-11-25T01:04:10.240Z,102193.13
2022-11-25T01:07:15.146Z,102194.00
2022-11-25T01:10:21.099Z,102194.69
2022-11-25T01:13:25.854Z,102206.50
2022-11-25T01:16:31.355Z,102194.59
2022-11-25T01:19:40.173Z,102192.97
2022-11-25T01:22:44.734Z,102180.94
2022-11-25T01:25:50.549Z,102189.31
2022-11-25T01:28:57.781Z,102179.22
2022-11-25T01:32:02.575Z,102187.66
2022-11-25T01:35:09.516Z,102192.50
2022-11-25T01:38:15.449Z,102195.03
2022-11-25T01:41:22.109Z,102202.75
2022-11-25T01:44:30.391Z,102195.06
2022-11-25T01:47:34.968Z,102204.47
2022-11-25T01:50:41.040Z,102192.75
2022-11-25T01:53:47.247Z,102200.44
2022-11-25T01:56:58.340Z,102200.41
2022-11-25T02:00:10.641Z,102196.19
2022-11-25T02:03:33.289Z,102189.34
2022-11-25T02:06:44.281Z,102193.72
2022-11-25T02:09:51.420Z,102188.53
2022-11-25T02:13:00.278Z,102197.81
2022-11-25T02:16:06.580Z,102197.03
2022-11-25T02:19:22.603Z,102190.13
2022-11-25T02:22:40.125Z,102189.22
2022-11-25T02:25:47.953Z,102195.25
2022-11-25T02:28:57.760Z,102190.34
2022-11-25T02:32:03.530Z,102198.03
2022-11-25T02:35:30.261Z,102195.50
2022-11-25T02:38:40.360Z,102201.44
2022-11-25T02:41:51.682Z,102203.13
2022-11-25T02:44:56.822Z,102205.75
2022-11-25T02:48:02.117Z,102198.94
2022-11-25T02:51:09.601Z,102194.75
2022-11-25T02:54:15.629Z,102198.22
2022-11-25T02:57:21.756Z,102197.38
2022-11-25T03:00:26.760Z,102204.84
2022-11-25T03:03:32.064Z,102209.94
2022-11-25T03:06:36.588Z,102210.97
2022-11-25T03:09:41.205Z,102210.16
2022-11-25T03:12:51.036Z,102211.03
2022-11-25T03:15:55.620Z,102203.47
2022-11-25T03:19:01.845Z,102221.84
2022-11-25T03:22:07.080Z,102206.88
2022-11-25T03:25:15.734Z,102203.31
2022-11-25T03:28:23.287Z,102206.88
2022-11-25T03:31:28.181Z,102203.38
2022-11-25T03:34:33.570Z,102210.06
2022-11-25T03:37:38.997Z,102204.22
2022-11-25T03:40:44.701Z,102211.78
2022-11-25T03:43:51.668Z,102209.13
2022-11-25T03:46:56.318Z,102201.56
2022-11-25T03:50:00.949Z,102207.50
2022-11-25T03:53:06.001Z,102215.00
2022-11-25T03:56:12.345Z,102215.72
2022-11-25T03:59:18.360Z,102209.91
2022-11-25T04:02:23.148Z,102209.91
2022-11-25T04:05:28.224Z,102223.41
2022-11-25T04:08:36.315Z,102222.38
2022-11-25T04:11:58.644Z,102224.16
2022-11-25T04:15:08.713Z,102219.16
2022-11-25T04:18:14.947Z,102219.19
2022-11-25T04:21:20.405Z,102217.50
2022-11-25T04:24:25.818Z,102223.47
2022-11-25T04:27:31.924Z,102220.84
2022-11-25T04:30:39.118Z,102224.34
2022-11-25T04:33:48.362Z,102230.38
2022-11-25T04:36:56.236Z,102237.00
2022-11-25T04:40:00.925Z,102243.78
2022-11-25T04:43:10.713Z,102237.03
2022-11-25T04:46:26.273Z,102244.75
2022-11-25T04:49:32.700Z,102237.19
2022-11-25T04:52:37.337Z,102248.16
2022-11-25T04:55:42.457Z,102243.97
2022-11-25T04:59:10.164Z,102246.63
2022-11-25T05:02:22.486Z,102244.84
2022-11-25T05:05:39.820Z,102248.97
2022-11-25T05:08:45.050Z,102246.34
2022-11-25T05:11:50.622Z,102248.97
2022-11-25T05:14:55.492Z,102243.00
2022-11-25T05:18:02.887Z,102252.94
2022-11-25T05:21:19.568Z,102243.69
2022-11-25T05:24:25.098Z,102250.41
2022-11-25T05:27:30.766Z,102252.38
2022-11-25T05:30:40.014Z,102247.25
2022-11-25T05:33:46.192Z,102244.00
2022-11-25T05:36:52.265Z,102246.50
2022-11-25T05:39:57.749Z,102245.56
2022-11-25T05:43:18.745Z,102255.56
2022-11-25T05:46:23.563Z,102263.94
2022-11-25T05:49:33.784Z,102268.13
2022-11-25T05:52:38.917Z,102268.19
2022-11-25T05:55:44.033Z,102272.34
2022-11-25T05:59:00.997Z,102279.97
2022-11-25T06:02:18.558Z,102280.75
2022-11-25T06:05:24.776Z,102281.63
2022-11-25T06:08:29.669Z,102282.66
2022-11-25T06:11:35.119Z,102281.06
2022-11-25T06:14:39.745Z,102288.72
2022-11-25T06:17:44.620Z,102281.13
2022-11-25T06:21:01.105Z,102275.91
2022-11-25T06:24:06.960Z,102272.63
2022-11-25T06:27:11.835Z,102276.00
2022-11-25T06:30:18.033Z,102275.81
2022-11-25T06:33:32.221Z,102282.72
2022-11-25T06:36:41.077Z,102287.72
2022-11-25T06:39:45.701Z,102278.41
2022-11-25T06:42:50.340Z,102287.69
2022-11-25T06:45:55.259Z,102283.59
2022-11-25T06:49:01.421Z,102282.69
2022-11-25T06:52:08.250Z,102297.84
2022-11-25T06:55:14.008Z,102296.13
2022-11-25T06:58:35.027Z,102295.38
2022-11-25T07:01:40.700Z,102289.50
2022-11-25T07:04:45.778Z,102303.03
2022-11-25T07:07:51.827Z,102304.63
2022-11-25T07:10:56.913Z,102293.81
2022-11-25T07:14:03.588Z,102307.19
2022-11-25T07:17:11.987Z,102309.78
2022-11-25T07:20:17.213Z,102312.28
2022-11-25T07:23:23.436Z,102304.72
2022-11-25T07:26:30.101Z,102300.56
2022-11-25T07:29:54.575Z,102315.81
2022-11-25T07:33:00.393Z,102312.34
2022-11-25T07:36:06.992Z,102307.41
2022-11-25T07:39:16.061Z,102312.53
2022-11-25T07:42:20.560Z,102308.38
2022-11-25T07:45:25.850Z,102305.00
2022-11-25T07:48:43.902Z,102312.59
2022-11-25T07:51:51.297Z,102316.88
2022-11-25T07:54:57.459Z,102320.22
2022-11-25T07:58:02.070Z,102318.63
2022-11-25T08:01:08.551Z,102307.56
2022-11-25T08:04:19.740Z,102328.66
2022-11-25T08:07:25.089Z,102323.66
2022-11-25T08:10:31.071Z,102332.84
2022-11-25T08:13:36.370Z,102328.63
2022-11-25T08:16:41.062Z,102333.69
2022-11-25T08:19:45.578Z,102320.31
2022-11-25T08:22:50.172Z,102322.06
2022-11-25T08:25:56.345Z,102324.38
2022-11-25T08:29:01.830Z,102329.53
2022-11-25T08:32:11.847Z,102332.25
2022-11-25T08:35:17.028Z,102334.09
2022-11-25T08:38:22.128Z,102347.44
2022-11-25T08:41:30.952Z,102344.19
2022-11-25T08:44:35.865Z,102343.34
2022-11-25T08:47:40.568Z,102353.59
2022-11-25T08:50:48.892Z,102356.16
2022-11-25T08:53:53.706Z,102352.81
2022-11-25T08:57:00.973Z,102356.09
2022-11-25T09:00:07.945Z,102355.53
2022-11-25T09:03:13.361Z,102361.28
2022-11-25T09:06:19.073Z,102363.16
2022-11-25T09:09:23.616Z,102360.47
2022-11-25T09:12:29.526Z,102357.94
2022-11-25T09:15:36.604Z,102357.19
2022-11-25T09:18:41.150Z,102360.53
2022-11-25T09:21:45.905Z,102346.22
2022-11-25T09:24:50.950Z,102357.09
2022-11-25T09:27:57.382Z,102349.56
2022-11-25T09:31:08.209Z,102346.38
2022-11-25T09:34:12.852Z,102340.31
2022-11-25T09:37:17.507Z,102350.75
2022-11-25T09:40:28.940Z,102343.94
2022-11-25T09:44:05.050Z,102341.53
2022-11-25T09:47:19.238Z,102346.63
2022-11-25T09:50:36.655Z,102349.97
2022-11-25T09:53:45.716Z,102350.97
2022-11-25T09:56:56.348Z,102348.47
2022-11-25T10:00:11.931Z,102347.63
2022-11-25T10:03:34.317Z,102355.28
2022-11-25T10:06:44.714Z,102359.69
2022-11-25T10:09:49.603Z,102339.56
2022-11-25T10:12:55.840Z,102353.09
2022-11-25T10:16:05.164Z,102353.16
2022-11-25T10:19:18.287Z,102352.31
2022-11-25T10:22:26.361Z,102364.38
2022-11-25T10:25:34.391Z,102361.72
2022-11-25T10:28:40.040Z,102358.25
2022-11-25T10:31:46.534Z,102358.44
2022-11-25T10:34:55.826Z,102353.28
2022-11-25T10:38:03.496Z,102367.03
2022-11-25T10:41:08.180Z,102363.72
2022-11-25T10:44:24.662Z,102360.41
2022-11-25T10:47:39.028Z,102367.09
2022-11-25T10:51:03.479Z,102368.06
2022-11-25T10:54:25.625Z,102368.91
2022-11-25T10:57:32.096Z,102364.78
2022-11-25T11:00:39.426Z,102379.03
2022-11-25T11:03:52.282Z,102366.56
2022-11-25T11:07:09.668Z,102373.31
2022-11-25T11:10:23.670Z,102371.69
2022-11-25T11:13:33.302Z,102387.13
2022-11-25T11:16:40.445Z,102381.91
2022-11-25T11:20:03.192Z,102377.00
2022-11-25T11:23:14.009Z,102377.81
2022-11-25T11:26:26.050Z,102383.72
2022-11-25T11:29:30.667Z,102384.59
2022-11-25T11:32:35.782Z,102381.19
2022-11-25T11:35:51.720Z,102387.28
2022-11-25T11:39:07.198Z,102374.41
2022-11-25T11:42:19.909Z,102384.78
2022-11-25T11:45:42.555Z,102388.16
2022-11-25T11:48:56.271Z,102386.44
2022-11-25T11:52:09.082Z,102379.75
2022-11-25T11:56:00.263Z,102397.38
2022-11-25T11:59:46.716Z,102388.13
2022-11-25T12:03:01.896Z,102393.28
2022-11-25T12:06:07.854Z,102389.00
2022-11-25T12:09:18.589Z,102395.06
2022-11-25T12:12:30.846Z,102402.59
2022-11-25T12:15:42.000Z,102395.81
2022-11-25T12:18:52.066Z,102394.16
2022-11-25T12:22:01.948Z,102394.13
2022-11-25T12:25:12.961Z,102396.69
2022-11-25T12:28:21.980Z,102383.84
2022-11-25T12:31:30.411Z,102399.06
2022-11-25T12:34:44.660Z,102394.78
2022-11-25T12:37:56.100Z,102392.28
2022-11-25T12:41:10.730Z,102399.88
2022-11-25T12:44:19.880Z,102403.13
2022-11-25T12:47:24.377Z,102398.09
2022-11-25T12:50:44.821Z,102398.94
2022-11-25T12:54:02.480Z,102405.50
2022-11-25T12:57:30.559Z,102400.47
2022-11-25T13:00:56.787Z,102399.53
2022-11-25T13:04:30.977Z,102406.38
2022-11-25T13:07:40.875Z,102402.19
2022-11-25T13:11:10.679Z,102396.94
2022-11-25T13:14:27.292Z,102403.81
2022-11-25T13:17:37.359Z,102401.84
2022-11-25T13:20:51.237Z,102394.47
2022-11-25T13:23:57.393Z,102402.91
2022-11-25T13:27:02.568Z,102407.94
2022-11-25T13:30:38.988Z,102412.16
2022-11-25T13:34:10.332Z,102412.31
2022-11-25T13:37:36.803Z,102413.75
2022-11-25T13:40:42.161Z,102409.66
2022-11-25T13:44:01.624Z,102413.94
2022-11-25T13:47:34.184Z,102411.38
2022-11-25T13:51:03.526Z,102417.25
2022-11-25T13:54:06.924Z,102422.44
2022-11-25T13:57:27.750Z,102425.81
2022-11-25T14:01:03.684Z,102417.34
2022-11-25T14:04:11.997Z,102421.53
2022-11-25T14:07:27.723Z,102419.75
2022-11-25T14:10:46.219Z,102425.56
2022-11-25T14:14:19.843Z,102428.06
2022-11-25T14:17:52.146Z,102423.84
2022-11-25T14:21:03.108Z,102428.97
2022-11-25T14:24:26.216Z,102436.47
2022-11-25T14:27:35.951Z,102434.84
2022-11-25T14:30:50.208Z,102434.09
2022-11-25T14:34:00.734Z,102434.81
2022-11-25T14:37:13.729Z,102434.84
2022-11-25T14:40:23.096Z,102440.72
2022-11-25T14:43:28.945Z,102448.41
2022-11-25T14:46:33.943Z,102447.47
2022-11-25T14:49:59.562Z,102444.91
2022-11-25T14:53:14.820Z,102453.53
2022-11-25T14:56:27.569Z,102451.75
2022-11-25T14:59:32.223Z,102458.50
2022-11-25T15:02:41.256Z,102446.59
2022-11-25T15:05:45.926Z,102448.16
2022-11-25T15:08:59.481Z,102458.31
2022-11-25T15:12:07.869Z,102463.50
2022-11-25T15:15:16.372Z,102463.38
2022-11-25T15:18:24.251Z,102457.44
2022-11-25T15:21:32.816Z,102464.25
2022-11-25T15:24:50.140Z,102468.56
2022-11-25T15:27:56.310Z,102460.16
2022-11-25T15:31:09.704Z,102464.38
2022-11-25T15:34:16.133Z,102466.16
2022-11-25T15:37:20.719Z,102460.13
2022-11-25T15:40:36.951Z,102462.69
2022-11-25T15:43:46.902Z,102461.78
2022-11-25T15:46:57.741Z,102460.94
2022-11-25T15:50:06.285Z,102479.38
2022-11-25T15:53:27.647Z,102483.72
2022-11-25T15:56:39.963Z,102483.69
2022-11-25T15:59:50.594Z,102489.56
2022-11-25T16:02:57.427Z,102485.31
2022-11-25T16:06:02.932Z,102491.28
2022-11-25T16:09:22.664Z,102485.25
2022-11-25T16:12:28.653Z,102487.78
2022-11-25T16:15:44.490Z,102486.13
2022-11-25T16:19:05.008Z,102488.66
2022-11-25T16:22:15.827Z,102483.69
2022-11-25T16:25:20.423Z,102487.09
2022-11-25T16:28:26.737Z,102490.34
2022-11-25T16:31:31.306Z,102475.97
2022-11-25T16:34:36.334Z,102483.72
2022-11-25T16:37:47.070Z,102479.50
2022-11-25T16:40:54.636Z,102478.69
2022-11-25T16:44:04.801Z,102479.50
2022-11-25T16:47:12.581Z,102478.69
2022-11-25T16:50:19.120Z,102484.50
2022-11-25T16:53:23.840Z,102482.78
2022-11-25T16:56:29.618Z,102489.59
2022-11-25T16:59:39.221Z,102482.94
2022-11-25T17:02:44.960Z,102483.59
2022-11-25T17:05:49.888Z,102483.63
2022-11-25T17:08:54.641Z,102487.06
2022-11-25T17:11:59.154Z,102485.16
2022-11-25T17:15:09.039Z,102489.44
2022-11-25T17:18:17.006Z,102486.97
2022-11-25T17:21:26.745Z,102480.94
2022-11-25T17:24:31.585Z,102479.31
2022-11-25T17:27:36.280Z,102486.03
2022-11-25T17:30:42.513Z,102488.50
2022-11-25T17:33:47.940Z,102486.84
2022-11-25T17:36:52.951Z,102484.25
2022-11-25T17:39:57.589Z,102484.34
2022-11-25T17:43:02.245Z,102498.59
2022-11-25T17:46:11.757Z,102495.19
2022-11-25T17:49:17.983Z,102494.31
2022-11-25T17:52:22.581Z,102495.97
2022-11-25T17:55:27.322Z,102493.38
2022-11-25T17:58:32.189Z,102503.44
2022-11-25T18:01:38.283Z,102498.41
2022-11-25T18:04:42.976Z,102495.81
2022-11-25T18:07:47.892Z,102499.28
2022-11-25T18:10:52.538Z,102507.84
2022-11-25T18:13:57.244Z,102516.22
2022-11-25T18:17:07.185Z,102513.03
2022-11-25T18:20:21.143Z,102513.88
2022-11-25T18:23:25.725Z,102511.31
2022-11-25T18:26:30.633Z,102501.25
2022-11-25T18:29:35.459Z,102514.69
2022-11-25T18:32:41.476Z,102509.50
2022-11-25T18:35:47.336Z,102514.59
2022-11-25T18:38:52.154Z,102514.59
2022-11-25T18:41:59.842Z,102518.09
2022-11-25T18:45:05.333Z,102515.34
2022-11-25T18:48:18.855Z,102518.66
2022-11-25T18:51:23.561Z,102512.78
2022-11-25T18:54:28.489Z,102527.91
2022-11-25T18:57:33.302Z,102523.78
2022-11-25T19:00:37.989Z,102514.38
2022-11-25T19:03:44.067Z,102528.69
2022-11-25T19:06:48.687Z,102521.88
2022-11-25T19:09:53.359Z,102531.16
2022-11-25T19:13:02.020Z,102531.16
2022-11-25T19:16:09.386Z,102528.69
2022-11-25T19:19:17.637Z,102529.50
2022-11-25T19:22:24.499Z,102532.00
2022-11-25T19:25:29.129Z,102535.38
2022-11-25T19:28:34.143Z,102532.88
2022-11-25T19:31:39.082Z,102543.88
2022-11-25T19:34:47.193Z,102542.34
2022-11-25T19:37:51.813Z,102546.56
2022-11-25T19:40:58.118Z,102545.72
2022-11-25T19:44:03.540Z,102538.16
2022-11-25T19:47:15.333Z,102543.84
2022-11-25T19:50:25.018Z,102542.25
2022-11-25T19:53:33.774Z,102545.59
2022-11-25T19:56:40.107Z,102547.28
2022-11-25T19:59:45.332Z,102551.53
2022-11-25T20:02:52.658Z,102553.28
2022-11-25T20:05:59.202Z,102553.34
2022-11-25T20:09:07.722Z,102557.56
2022-11-25T20:12:22.162Z,102560.06
2022-11-25T20:15:27.222Z,102552.41
2022-11-25T20:18:32.085Z,102562.56
2022-11-25T20:21:40.181Z,102558.41
2022-11-25T20:24:44.811Z,102560.06
2022-11-25T20:27:49.445Z,102557.59
2022-11-25T20:30:54.841Z,102560.97
2022-11-25T20:33:59.505Z,102566.03
2022-11-25T20:37:05.532Z,102569.31
2022-11-25T20:40:18.812Z,102572.69
2022-11-25T20:43:29.230Z,102579.47
2022-11-25T20:46:33.780Z,102582.03
2022-11-25T20:49:38.584Z,102578.59
2022-11-25T20:52:44.710Z,102584.63
2022-11-25T20:55:50.356Z,102582.03
2022-11-25T20:58:55.626Z,102593.81
2022-11-25T21:02:00.437Z,102594.78
2022-11-25T21:05:05.720Z,102597.31
2022-11-25T21:08:18.474Z,102597.19
2022-11-25T21:11:23.889Z,102594.69
2022-11-25T21:14:29.757Z,102592.13
2022-11-25T21:17:34.273Z,102594.66
2022-11-25T21:20:39.310Z,102596.31
2022-11-25T21:23:45.790Z,102601.25
2022-11-25T21:26:51.507Z,102602.13
2022-11-25T21:29:56.561Z,102604.00
2022-11-25T21:33:02.845Z,102597.97
2022-11-25T21:36:12.034Z,102607.31
2022-11-25T21:39:29.810Z,102608.75
2022-11-25T21:42:34.577Z,102607.13
2022-11-25T21:45:39.137Z,102606.13
2022-11-25T21:48:43.936Z,102607.09
2022-11-25T21:51:48.474Z,102609.59
2022-11-25T21:54:54.353Z,102613.13
2022-11-25T21:57:59.119Z,102612.09
2022-11-25T22:01:03.777Z,102620.50
2022-11-25T22:04:11.229Z,102608.81
2022-11-25T22:07:16.222Z,102610.53
2022-11-25T22:10:22.829Z,102618.06
2022-11-25T22:13:34.715Z,102608.78
2022-11-25T22:16:39.483Z,102618.06
2022-11-25T22:19:44.321Z,102606.69
2022-11-25T22:22:49.061Z,102615.25
2022-11-25T22:25:55.554Z,102612.97
2022-11-25T22:29:00.961Z,102613.66
2022-11-25T22:32:11.212Z,102625.47
2022-11-25T22:35:20.225Z,102628.75
2022-11-25T22:38:24.872Z,102623.06
2022-11-25T22:41:31.051Z,102624.78
2022-11-25T22:44:38.134Z,102632.38
2022-11-25T22:47:44.379Z,102629.97
2022-11-25T22:50:50.115Z,102640.97
2022-11-25T22:53:54.705Z,102635.78
2022-11-25T22:57:00.911Z,102633.94
2022-11-25T23:00:07.857Z,102632.34
2022-11-25T23:03:20.706Z,102638.28
2022-11-25T23:06:26.133Z,102632.28
2022-11-25T23:09:30.821Z,102638.16
2022-11-25T23:12:36.758Z,102638.28
2022-11-25T23:15:48.090Z,102632.34
2022-11-25T23:18:52.731Z,102643.28
2022-11-25T23:21:57.358Z,102635.69
2022-11-25T23:25:01.919Z,102638.19
2022-11-25T23:28:07.963Z,102633.00
2022-11-25T23:31:13.600Z,102638.16
2022-11-25T23:34:18.256Z,102640.97
2022-11-25T23:37:22.892Z,102646.78
2022-11-25T23:40:28.640Z,102649.22
2022-11-25T23:43:34.705Z,102642.47
2022-11-25T23:46:39.320Z,102637.56
2022-11-25T23:49:46.512Z,102631.75
2022-11-25T23:52:51.530Z,102631.72
2022-11-25T23:55:56.056Z,102630.88
2022-11-25T23:59:02.259Z,102642.66
